Time;durP1;ratioP1;P1;durP2;ratioP2;P2;SDS_P1;SDS_P2;PMS_P1;PMS_P2;Temp;Humidity;BMP_temperature;BMP_pressure;BME280_temperature;BME280_humidity;BME280_pressure;Samples;Min_cycle;Max_cycle;Signal;HPM_P1;HPM_P2
2024/02/25 00:01:56;;;;;;;29.67;27.67;;;;;;;6.68;100.00;101136.25;5093402;28;20048;-71
2024/02/25 00:04:24;;;;;;;30.40;28.50;;;;;;;6.61;100.00;101146.69;5098114;28;20066;-72
2024/02/25 00:06:51;;;;;;;28.80;26.92;;;;;;;6.89;100.00;101131.22;5099876;28;20040;-71
2024/02/25 00:09:18;;;;;;;28.67;26.67;;;;;;;6.93;100.00;101139.63;5099054;28;20071;-71
2024/02/25 00:11:45;;;;;;;29.27;27.27;;;;;;;7.13;100.00;101142.69;5089596;28;20070;-71
2024/02/25 00:14:12;;;;;;;29.02;27.13;;;;;;;6.99;100.00;101126.56;5093199;28;20055;-72
2024/02/25 00:16:39;;;;;;;26.75;24.65;;;;;;;6.98;100.00;101138.13;5094818;28;20728;-72
2024/02/25 00:19:06;;;;;;;27.20;25.40;;;;;;;6.39;100.00;101132.38;5098369;28;20046;-72
2024/02/25 00:21:34;;;;;;;29.77;27.63;;;;;;;6.91;100.00;101137.16;5104477;28;20060;-71
2024/02/25 00:24:01;;;;;;;28.40;26.60;;;;;;;6.83;100.00;101131.91;5097062;28;20075;-72
2024/02/25 00:26:28;;;;;;;29.17;27.27;;;;;;;6.83;100.00;101131.91;5096395;28;20396;-72
2024/02/25 00:28:55;;;;;;;28.35;26.45;;;;;;;6.96;100.00;101134.00;5094023;28;20879;-72
2024/02/25 00:31:22;;;;;;;28.27;26.38;;;;;;;6.88;100.00;101127.75;5091397;28;20514;-72
2024/02/25 00:33:48;;;;;;;28.45;26.45;;;;;;;6.77;100.00;101128.13;5100666;28;20044;-72
2024/02/25 00:36:15;;;;;;;29.52;27.52;;;;;;;6.37;100.00;101123.81;5096273;28;20083;-71
2024/02/25 00:38:44;;;;;;;30.98;28.98;;;;;;;6.86;100.00;101121.00;5095886;28;20573;-72
2024/02/25 00:41:10;;;;;;;27.33;25.52;;;;;;;7.09;100.00;101124.53;5102391;28;20051;-71
2024/02/25 00:43:37;;;;;;;29.02;27.08;;;;;;;6.93;100.00;101114.06;5102423;28;20070;-71
2024/02/25 00:46:04;;;;;;;28.38;26.58;;;;;;;6.73;100.00;101110.19;5102176;28;20052;-71
2024/02/25 00:48:31;;;;;;;31.08;28.85;;;;;;;6.48;100.00;101118.19;5089741;28;20471;-72
2024/02/25 00:50:58;;;;;;;33.78;31.05;;;;;;;6.80;100.00;101119.06;5105154;28;20051;-71
2024/02/25 00:53:25;;;;;;;29.38;27.10;;;;;;;6.56;100.00;101112.84;5087650;28;20597;-71
2024/02/25 00:55:55;;;;;;;26.73;24.92;;;;;;;6.73;100.00;101100.44;5095924;28;20058;-71
2024/02/25 00:58:22;;;;;;;28.08;26.10;;;;;;;6.81;100.00;101096.97;5092019;28;20059;-71
2024/02/25 01:00:49;;;;;;;28.27;26.48;;;;;;;6.73;100.00;101097.78;5096891;28;20044;-72
2024/02/25 01:03:16;;;;;;;28.73;26.92;;;;;;;7.03;100.00;101095.34;5093131;28;20146;-71
2024/02/25 01:05:43;;;;;;;26.27;24.58;;;;;;;7.03;100.00;101088.25;5101430;28;20048;-71
2024/02/25 01:08:10;;;;;;;29.17;27.38;;;;;;;7.27;100.00;101091.75;5095262;28;20048;-71
2024/02/25 01:10:37;;;;;;;28.67;26.77;;;;;;;7.16;100.00;101092.13;5100726;28;20493;-71
2024/02/25 01:13:05;;;;;;;27.90;26.00;;;;;;;7.27;100.00;101091.75;5094588;28;20083;-71
2024/02/25 01:15:33;;;;;;;29.70;27.80;;;;;;;7.60;100.00;101089.69;5091534;28;20047;-72
2024/02/25 01:17:59;;;;;;;30.05;28.05;;;;;;;7.61;100.00;101099.25;5095541;28;20503;-71
2024/02/25 01:20:26;;;;;;;29.45;27.20;;;;;;;7.70;100.00;101092.09;5098919;28;20048;-71
2024/02/25 01:22:53;;;;;;;27.52;25.73;;;;;;;7.76;100.00;101094.84;5092306;28;20052;-71
2024/02/25 01:25:20;;;;;;;28.98;27.13;;;;;;;7.55;100.00;101092.03;5087421;28;20048;-72
2024/02/25 01:27:47;;;;;;;27.80;25.90;;;;;;;7.72;100.00;101098.03;5093850;28;20052;-71
2024/02/25 01:30:16;;;;;;;26.85;24.95;;;;;;;7.22;100.00;101104.66;5096467;28;20085;-71
2024/02/25 01:32:42;;;;;;;26.65;24.65;;;;;;;7.47;100.00;101105.31;5100200;28;20051;-71
2024/02/25 01:35:12;;;;;;;26.98;25.17;;;;;;;7.44;100.00;101105.66;5093871;28;20044;-71
2024/02/25 01:37:42;;;;;;;27.05;25.33;;;;;;;7.56;100.00;101107.75;5097570;28;20040;-71
2024/02/25 01:40:10;;;;;;;27.08;25.27;;;;;;;7.62;100.00;101100.91;5091044;28;20054;-71
2024/02/25 01:42:37;;;;;;;32.92;30.08;;;;;;;7.62;100.00;101103.53;5096469;28;20051;-71
2024/02/25 01:45:05;;;;;;;30.15;28.13;;;;;;;7.02;100.00;101106.91;5090956;28;20058;-71
2024/02/25 01:47:33;;;;;;;31.17;29.10;;;;;;;7.42;100.00;101100.56;5095217;28;20519;-71
2024/02/25 01:50:00;;;;;;;30.00;28.10;;;;;;;7.63;100.00;101107.03;5088865;28;20059;-71
2024/02/25 01:52:28;;;;;;;27.25;25.45;;;;;;;7.50;100.00;101110.25;5092666;28;20058;-71
2024/02/25 01:54:56;;;;;;;28.75;26.75;;;;;;;7.59;100.00;101098.63;5091955;28;20135;-71
2024/02/25 01:57:23;;;;;;;30.77;28.67;;;;;;;7.65;100.00;101095.25;5094362;28;20059;-71
2024/02/25 01:59:51;;;;;;;28.35;26.65;;;;;;;7.62;100.00;101097.44;5091461;28;21745;-71
2024/02/25 02:02:18;;;;;;;28.38;26.67;;;;;;;7.75;100.00;101089.75;5091784;28;20052;-71
2024/02/25 02:04:47;;;;;;;28.20;26.40;;;;;;;7.23;100.00;101099.22;5097583;28;20146;-71
2024/02/25 02:07:14;;;;;;;28.55;26.65;;;;;;;7.51;100.00;101096.06;5105614;28;20558;-71
2024/02/25 02:09:41;;;;;;;25.63;24.02;;;;;;;7.62;100.00;101085.03;5088176;28;20051;-71
2024/02/25 02:12:11;;;;;;;26.45;24.75;;;;;;;7.83;100.00;101089.66;5092940;28;20051;-71
2024/02/25 02:14:38;;;;;;;27.30;25.60;;;;;;;7.55;100.00;101095.50;5089666;28;20072;-71
2024/02/25 02:17:05;;;;;;;25.75;24.10;;;;;;;7.58;100.00;101094.34;5089731;28;20048;-71
2024/02/25 02:19:32;;;;;;;27.10;25.40;;;;;;;7.80;100.00;101093.47;5095952;28;20039;-71
2024/02/25 02:22:00;;;;;;;26.88;25.17;;;;;;;7.89;100.00;101091.59;5081403;28;20487;-71
2024/02/25 02:24:27;;;;;;;27.83;26.02;;;;;;;7.53;100.00;101092.25;5093639;28;20483;-71
2024/02/25 02:26:54;;;;;;;28.40;26.60;;;;;;;7.76;100.00;101091.38;5085564;28;20138;-71
2024/02/25 02:29:21;;;;;;;29.00;27.20;;;;;;;7.80;100.00;101096.13;5088342;28;20589;-72
2024/02/25 02:31:49;;;;;;;30.85;28.95;;;;;;;7.83;100.00;101094.13;5088431;28;20056;-71
2024/02/25 02:34:18;;;;;;;28.50;26.58;;;;;;;7.85;100.00;101095.59;5098002;28;20052;-71
2024/02/25 02:36:45;;;;;;;27.73;25.92;;;;;;;7.66;100.00;101088.19;5089834;28;20056;-71
2024/02/25 02:39:13;;;;;;;29.85;28.05;;;;;;;7.42;100.00;101092.63;5094016;28;20048;-72
2024/02/25 02:41:41;;;;;;;28.10;26.30;;;;;;;7.43;100.00;101091.63;5088846;28;20052;-72
2024/02/25 02:44:07;;;;;;;26.20;24.60;;;;;;;7.24;100.00;101090.28;5103180;28;20051;-71
2024/02/25 02:46:40;;;;;;;27.88;26.08;;;;;;;7.06;100.00;101105.56;5090656;28;20051;-72
2024/02/25 02:49:07;;;;;;;27.98;26.27;;;;;;;6.99;100.00;101100.16;5087272;28;20055;-71
2024/02/25 02:51:34;;;;;;;29.17;27.25;;;;;;;7.14;100.00;101099.41;5097650;28;20053;-71
2024/02/25 02:54:02;;;;;;;29.27;27.35;;;;;;;7.18;100.00;101092.81;5096208;28;20785;-71
2024/02/25 02:56:31;;;;;;;26.90;25.10;;;;;;;7.22;100.00;101102.00;5089906;28;20105;-72
2024/02/25 02:58:58;;;;;;;25.55;23.90;;;;;;;7.11;100.00;101104.06;5091029;28;20077;-71
2024/02/25 03:01:25;;;;;;;28.77;27.05;;;;;;;6.98;100.00;101109.06;5097886;28;20070;-71
2024/02/25 03:03:52;;;;;;;27.92;26.23;;;;;;;6.96;100.00;101104.94;5090522;28;20044;-71
2024/02/25 03:06:18;;;;;;;29.00;26.92;;;;;;;7.09;100.00;101111.31;5091519;28;20054;-71
2024/02/25 03:08:46;;;;;;;27.40;25.70;;;;;;;7.28;100.00;101111.88;5095805;28;20435;-71
2024/02/25 03:11:13;;;;;;;29.50;27.50;;;;;;;7.32;100.00;101099.97;5097333;28;20048;-71
2024/02/25 03:13:42;;;;;;;28.80;27.00;;;;;;;7.24;100.00;101105.31;5097446;28;20088;-72
2024/02/25 03:16:08;;;;;;;27.80;26.00;;;;;;;6.96;100.00;101100.50;5095884;28;20051;-70
2024/02/25 03:18:36;;;;;;;28.75;26.95;;;;;;;7.15;100.00;101101.88;5094811;28;20047;-71
2024/02/25 03:21:03;;;;;;;28.33;26.42;;;;;;;7.37;100.00;101092.34;5102765;28;20476;-71
2024/02/25 03:23:30;;;;;;;29.77;27.85;;;;;;;7.20;100.00;101101.34;5101586;28;20047;-71
2024/02/25 03:25:57;;;;;;;30.17;27.98;;;;;;;7.24;100.00;101103.50;5104210;28;20574;-71
2024/02/25 03:28:24;;;;;;;29.25;27.35;;;;;;;7.24;100.00;101100.03;5096309;28;20062;-72
2024/02/25 03:30:54;;;;;;;31.35;29.42;;;;;;;7.17;100.00;101107.00;5094119;28;20062;-71
2024/02/25 03:33:21;;;;;;;30.70;28.80;;;;;;;7.39;100.00;101100.91;5097995;28;20064;-71
2024/02/25 03:35:47;;;;;;;30.38;28.48;;;;;;;7.48;100.00;101094.56;5106237;28;20059;-71
2024/02/25 03:38:14;;;;;;;28.55;26.63;;;;;;;7.34;100.00;101097.97;5091704;28;20047;-72
2024/02/25 03:40:42;;;;;;;29.00;27.10;;;;;;;7.23;100.00;101093.94;5104225;28;20052;-72
2024/02/25 03:43:12;;;;;;;30.25;28.25;;;;;;;7.37;100.00;101096.81;5098952;28;20048;-71
2024/02/25 03:45:39;;;;;;;28.38;26.48;;;;;;;7.39;100.00;101097.47;5089156;28;20048;-71
2024/02/25 03:48:08;;;;;;;30.50;28.52;;;;;;;7.15;100.00;101096.59;5101658;28;20127;-71
2024/02/25 03:50:35;;;;;;;32.25;30.25;;;;;;;7.28;100.00;101094.19;5099752;28;20060;-71
2024/02/25 03:53:03;;;;;;;29.75;27.85;;;;;;;7.43;100.00;101101.38;5099903;28;20052;-72
2024/02/25 03:55:30;;;;;;;29.48;27.67;;;;;;;7.27;100.00;101099.69;5092932;28;20059;-72
2024/02/25 03:57:57;;;;;;;31.60;29.60;;;;;;;7.38;100.00;101106.38;5092303;28;20511;-72
2024/02/25 04:00:24;;;;;;;31.17;29.38;;;;;;;7.42;100.00;101107.69;5105251;28;20148;-71
2024/02/25 04:02:51;;;;;;;26.83;25.10;;;;;;;7.26;100.00;101114.72;5076050;28;20044;-70
2024/02/25 04:05:20;;;;;;;28.10;26.20;;;;;;;7.28;100.00;101130.38;5099205;28;20669;-72
2024/02/25 04:07:47;;;;;;;28.73;26.83;;;;;;;7.16;100.00;101129.13;5098592;28;20052;-71
2024/02/25 04:10:14;;;;;;;28.77;26.88;;;;;;;7.30;100.00;101126.56;5102714;28;20051;-72
2024/02/25 04:12:41;;;;;;;28.73;27.02;;;;;;;7.25;100.00;101131.53;5092040;28;20132;-71
2024/02/25 04:15:09;;;;;;;32.20;30.30;;;;;;;7.47;100.00;101127.28;5096079;28;20044;-71
2024/02/25 04:17:36;;;;;;;28.40;26.60;;;;;;;7.55;100.00;101124.59;5098833;28;20056;-72
2024/02/25 04:20:04;;;;;;;28.77;26.98;;;;;;;7.36;100.00;101132.97;5097866;28;20056;-71
2024/02/25 04:22:32;;;;;;;28.02;26.38;;;;;;;7.48;100.00;101136.88;5096482;28;20059;-71
2024/02/25 04:24:59;;;;;;;28.05;26.35;;;;;;;7.61;100.00;101144.22;5101253;28;20048;-71
2024/02/25 04:27:26;;;;;;;27.88;26.08;;;;;;;7.79;100.00;101135.97;5094497;28;20043;-71
2024/02/25 04:29:53;;;;;;;30.48;28.42;;;;;;;7.83;100.00;101133.81;5092767;28;20139;-72
2024/02/25 04:32:20;;;;;;;28.30;26.60;;;;;;;7.91;100.00;101129.28;5094091;28;20044;-71
2024/02/25 04:34:47;;;;;;;27.05;25.35;;;;;;;7.96;100.00;101134.03;5090212;28;20052;-71
2024/02/25 04:37:14;;;;;;;26.52;24.73;;;;;;;8.09;100.00;101133.44;5096067;28;20052;-71
2024/02/25 04:39:43;;;;;;;29.75;27.85;;;;;;;7.87;100.00;101135.94;5090946;28;20485;-71
2024/02/25 04:42:10;;;;;;;30.33;28.42;;;;;;;7.58;100.00;101147.19;5089431;28;20446;-71
2024/02/25 04:44:37;;;;;;;29.65;27.65;;;;;;;7.94;100.00;101157.19;5088183;28;20751;-71
2024/02/25 04:47:04;;;;;;;30.67;28.67;;;;;;;7.95;100.00;101158.81;5097349;28;20053;-71
2024/02/25 04:49:31;;;;;;;29.90;28.00;;;;;;;8.16;100.00;101158.97;5089649;28;20063;-71
2024/02/25 04:51:58;;;;;;;29.48;27.67;;;;;;;8.14;100.00;101161.00;5099198;28;20062;-71
2024/02/25 04:54:24;;;;;;;28.90;26.95;;;;;;;8.13;100.00;101159.34;5093171;28;20051;-72
2024/02/25 04:56:54;;;;;;;30.15;28.35;;;;;;;8.09;100.00;101166.00;5098130;27;20511;-71
2024/02/25 04:59:21;;;;;;;29.10;27.20;;;;;;;8.19;100.00;101165.75;5098780;28;20555;-72
2024/02/25 05:01:48;;;;;;;26.95;25.15;;;;;;;8.21;100.00;101161.91;5093280;28;20052;-71
2024/02/25 05:04:15;;;;;;;26.35;24.65;;;;;;;8.23;100.00;101173.16;5094242;28;20059;-71
2024/02/25 05:06:42;;;;;;;26.23;24.50;;;;;;;8.31;100.00;101168.78;5096400;28;20050;-72
2024/02/25 05:09:10;;;;;;;26.88;25.15;;;;;;;8.22;100.00;101171.50;5098919;28;20430;-71
2024/02/25 05:11:37;;;;;;;30.67;28.67;;;;;;;8.24;100.00;101177.44;5094840;28;20056;-71
2024/02/25 05:14:05;;;;;;;25.58;23.85;;;;;;;8.24;100.00;101182.72;5098776;28;20056;-71
2024/02/25 05:16:32;;;;;;;25.70;23.88;;;;;;;8.19;100.00;101185.06;5087356;28;20079;-71
2024/02/25 05:18:59;;;;;;;27.00;25.10;;;;;;;8.27;100.00;101170.97;5098818;28;20056;-72
2024/02/25 05:21:26;;;;;;;26.80;24.90;;;;;;;8.41;100.00;101174.66;5102397;28;20052;-71
2024/02/25 05:23:53;;;;;;;26.00;23.90;;;;;;;8.29;100.00;101176.06;5088388;28;20177;-71
2024/02/25 05:26:20;;;;;;;27.60;25.60;;;;;;;8.27;100.00;101168.31;5092314;28;20433;-71
2024/02/25 05:28:46;;;;;;;26.98;24.95;;;;;;;8.23;100.00;101174.97;5096838;28;20056;-71
2024/02/25 05:31:16;;;;;;;27.25;25.35;;;;;;;8.10;100.00;101174.75;5099417;28;20062;-71
2024/02/25 05:33:43;;;;;;;27.13;25.23;;;;;;;8.10;100.00;101194.09;5103136;28;20056;-71
2024/02/25 05:36:10;;;;;;;28.45;25.75;;;;;;;8.38;100.00;101194.41;5095053;28;20064;-72
2024/02/25 05:38:37;;;;;;;30.20;26.83;;;;;;;8.76;100.00;101198.81;5094095;28;20059;-71
2024/02/25 05:41:07;;;;;;;28.02;23.70;;;;;;;8.85;100.00;101197.72;5088343;28;20052;-71
2024/02/25 05:43:34;;;;;;;26.55;24.70;;;;;;;8.73;100.00;101202.63;5091011;28;20065;-72
2024/02/25 05:46:00;;;;;;;26.67;24.88;;;;;;;8.82;100.00;101209.50;5090623;28;20446;-71
2024/02/25 05:48:29;;;;;;;26.17;24.38;;;;;;;8.74;100.00;101209.56;5091427;28;20808;-71
2024/02/25 05:50:56;;;;;;;27.17;25.38;;;;;;;8.80;100.00;101222.09;5101592;28;20040;-71
2024/02/25 05:53:23;;;;;;;27.58;25.77;;;;;;;8.85;100.00;101213.59;5099645;28;20518;-71
2024/02/25 05:55:49;;;;;;;29.45;27.48;;;;;;;8.90;100.00;101224.50;5095803;28;20056;-71
2024/02/25 05:58:16;;;;;;;25.98;24.23;;;;;;;8.88;100.00;101219.34;5100884;28;20063;-71
2024/02/25 06:00:43;;;;;;;29.20;27.30;;;;;;;8.49;100.00;101231.00;5083957;28;20071;-72
2024/02/25 06:03:14;;;;;;;28.77;26.52;;;;;;;8.66;100.00;101238.81;5103271;28;20066;-71
2024/02/25 06:05:42;;;;;;;29.25;27.25;;;;;;;8.63;100.00;101249.75;5097867;28;20423;-71
2024/02/25 06:08:09;;;;;;;29.40;27.30;;;;;;;8.54;100.00;101250.84;5101283;28;20044;-71
2024/02/25 06:10:36;;;;;;;30.17;27.98;;;;;;;8.38;100.00;101257.03;5093087;28;20058;-71
2024/02/25 06:13:04;;;;;;;31.05;28.95;;;;;;;8.38;100.00;101249.97;5101494;28;20051;-71
2024/02/25 06:15:31;;;;;;;33.05;30.30;;;;;;;8.51;100.00;101256.50;5097999;28;20434;-71
2024/02/25 06:17:57;;;;;;;29.33;27.33;;;;;;;8.50;100.00;101258.28;5095424;28;20139;-72
2024/02/25 06:20:25;;;;;;;30.77;28.52;;;;;;;8.42;100.00;101258.38;5102323;28;20135;-72
2024/02/25 06:22:53;;;;;;;31.77;29.48;;;;;;;8.52;100.00;101263.41;5087841;28;20055;-72
2024/02/25 06:25:20;;;;;;;34.03;31.17;;;;;;;8.36;100.00;101259.06;5097713;28;20051;-72
2024/02/25 06:27:47;;;;;;;37.08;34.38;;;;;;;8.54;100.00;101256.13;5083685;28;20129;-72
2024/02/25 06:30:15;;;;;;;40.95;37.90;;;;;;;8.69;100.00;101254.34;5084756;28;20046;-71
2024/02/25 06:32:42;;;;;;;38.45;35.65;;;;;;;8.54;100.00;101267.53;5088712;28;20054;-72
2024/02/25 06:35:10;;;;;;;38.65;35.78;;;;;;;8.45;100.00;101263.31;5090949;28;20052;-71
2024/02/25 06:37:36;;;;;;;39.97;36.95;;;;;;;8.37;100.00;101273.94;5089318;28;20507;-72
2024/02/25 06:40:06;;;;;;;46.25;42.85;;;;;;;8.52;100.00;101260.78;5091290;28;20043;-72
2024/02/25 06:42:33;;;;;;;43.42;40.22;;;;;;;8.51;100.00;101264.44;5089562;28;20466;-71
2024/02/25 06:45:00;;;;;;;46.00;42.55;;;;;;;8.57;100.00;101266.38;5085479;28;20795;-71
2024/02/25 06:47:27;;;;;;;48.95;45.25;;;;;;;8.73;100.00;101263.56;5089892;28;20059;-71
2024/02/25 06:49:54;;;;;;;48.40;44.92;;;;;;;8.66;100.00;101276.69;5085038;28;20461;-71
2024/02/25 06:52:21;;;;;;;49.42;45.83;;;;;;;8.75;100.00;101277.44;4730548;28;10000386;-72
2024/02/25 06:54:48;;;;;;;51.53;47.40;;;;;;;9.02;100.00;101283.16;5085844;28;20151;-72
2024/02/25 06:57:17;;;;;;;57.67;53.58;;;;;;;9.22;100.00;101280.75;5080991;28;20151;-71
2024/02/25 06:59:44;;;;;;;59.75;55.45;;;;;;;9.28;100.00;101272.06;5087197;28;20048;-71
2024/02/25 07:02:14;;;;;;;51.45;47.65;;;;;;;9.13;100.00;101274.72;5083962;28;20049;-71
2024/02/25 07:04:41;;;;;;;51.13;47.33;;;;;;;9.24;100.00;101270.81;5083142;28;20412;-71
2024/02/25 07:07:08;;;;;;;52.28;48.58;;;;;;;9.37;100.00;101269.13;5087978;28;20059;-71
2024/02/25 07:09:35;;;;;;;51.80;48.05;;;;;;;9.47;100.00;101268.03;5091742;28;20048;-71
2024/02/25 07:12:02;;;;;;;54.35;50.55;;;;;;;9.36;100.00;101262.19;5079735;28;20052;-71
2024/02/25 07:14:30;;;;;;;57.03;53.03;;;;;;;9.46;100.00;101261.91;5084349;28;20064;-71
2024/02/25 07:16:57;;;;;;;50.63;47.03;;;;;;;9.55;100.00;101263.44;5085342;28;20075;-72
2024/02/25 07:19:24;;;;;;;52.70;49.00;;;;;;;9.50;100.00;101268.50;5083214;28;20127;-72
2024/02/25 07:21:51;;;;;;;54.63;50.67;;;;;;;9.64;100.00;101262.34;5081854;28;20821;-72
2024/02/25 07:24:17;;;;;;;52.60;48.47;;;;;;;9.78;100.00;101254.53;5077414;28;20056;-72
2024/02/25 07:26:45;;;;;;;52.47;48.53;;;;;;;9.96;100.00;101243.50;5075408;28;20047;-71
2024/02/25 07:29:12;;;;;;;53.63;49.65;;;;;;;10.04;100.00;101232.75;5076554;28;20547;-72
2024/02/25 07:31:41;;;;;;;52.20;47.88;;;;;;;10.14;100.00;101222.66;5073950;28;20144;-72
2024/02/25 07:34:08;;;;;;;57.72;53.72;;;;;;;10.38;100.00;101213.50;5090480;28;20066;-72
2024/02/25 07:36:38;;;;;;;55.13;51.22;;;;;;;10.49;100.00;101199.66;5086083;28;20048;-72
2024/02/25 07:39:05;;;;;;;55.53;51.63;;;;;;;10.80;100.00;101194.97;5086896;28;20063;-72
2024/02/25 07:41:32;;;;;;;59.42;55.30;;;;;;;10.91;100.00;101191.75;5079190;28;20785;-72
2024/02/25 07:43:59;;;;;;;46.90;43.30;;;;;;;11.27;100.00;101186.19;5092495;28;20068;-72
2024/02/25 07:46:27;;;;;;;48.10;44.33;;;;;;;11.38;100.00;101180.31;5082150;28;20477;-72
2024/02/25 07:48:55;;;;;;;46.97;43.67;;;;;;;11.40;100.00;101183.56;5078339;28;20102;-72
2024/02/25 07:51:22;;;;;;;52.85;49.13;;;;;;;11.59;100.00;101183.81;5076752;28;20056;-72
2024/02/25 07:53:49;;;;;;;47.22;43.83;;;;;;;11.52;100.00;101177.69;5084614;28;20063;-72
2024/02/25 07:56:20;;;;;;;41.17;38.10;;;;;;;11.28;100.00;101179.03;5075258;28;20048;-72
2024/02/25 07:58:47;;;;;;;38.42;35.65;;;;;;;11.48;100.00;101173.78;5083602;28;20716;-72
2024/02/25 08:01:13;;;;;;;31.08;28.88;;;;;;;11.80;100.00;101164.22;5085531;28;21169;-72
2024/02/25 08:03:42;;;;;;;41.60;38.60;;;;;;;12.03;100.00;101166.53;5095458;28;20052;-72
2024/02/25 08:06:13;;;;;;;44.85;41.20;;;;;;;12.07;100.00;101178.41;5084166;28;20723;-72
2024/02/25 08:08:40;;;;;;;39.78;36.50;;;;;;;11.93;100.00;101172.28;5087225;28;20051;-72
2024/02/25 08:11:07;;;;;;;35.25;32.85;;;;;;;11.87;100.00;101179.22;5086354;28;20450;-72
2024/02/25 08:13:34;;;;;;;33.88;31.58;;;;;;;12.00;100.00;101182.91;5086429;28;21196;-72
2024/02/25 08:16:01;;;;;;;34.55;32.15;;;;;;;12.10;100.00;101181.50;5093782;28;20044;-72
2024/02/25 08:18:28;;;;;;;36.30;33.70;;;;;;;12.28;100.00;101177.38;5087493;28;20792;-72
2024/02/25 08:20:55;;;;;;;37.35;34.33;;;;;;;12.17;100.00;101180.69;5092341;28;20048;-71
2024/02/25 08:23:23;;;;;;;38.13;35.53;;;;;;;12.24;100.00;101186.81;5092576;28;20060;-72
2024/02/25 08:25:50;;;;;;;39.85;37.05;;;;;;;12.28;100.00;101188.03;5095910;28;20526;-71
2024/02/25 08:28:17;;;;;;;38.28;35.47;;;;;;;12.14;100.00;101190.72;5094615;28;20055;-71
2024/02/25 08:30:44;;;;;;;37.42;34.80;;;;;;;12.23;100.00;101179.84;5083971;28;20055;-72
2024/02/25 08:33:14;;;;;;;38.92;36.22;;;;;;;12.44;100.00;101184.16;5084447;28;20575;-72
2024/02/25 08:35:41;;;;;;;36.25;33.65;;;;;;;12.45;100.00;101191.91;5083882;28;20055;-72
2024/02/25 08:38:08;;;;;;;36.55;33.88;;;;;;;12.49;100.00;101187.00;5090707;28;20058;-72
2024/02/25 08:40:36;;;;;;;36.80;34.10;;;;;;;12.58;100.00;101178.56;5090159;28;20048;-72
2024/02/25 08:43:03;;;;;;;34.63;32.10;;;;;;;12.59;100.00;101174.91;5091628;28;20059;-72
2024/02/25 08:45:30;;;;;;;35.30;32.80;;;;;;;12.67;100.00;101183.69;5089252;28;20525;-72
2024/02/25 08:47:57;;;;;;;33.50;31.00;;;;;;;12.65;100.00;101180.41;5088933;28;20682;-71
2024/02/25 08:50:24;;;;;;;33.95;31.45;;;;;;;12.72;100.00;101165.22;5090581;28;20139;-72
2024/02/25 08:52:50;;;;;;;35.65;32.90;;;;;;;12.72;100.00;101168.72;5087745;28;20051;-71
2024/02/25 08:55:17;;;;;;;35.67;32.97;;;;;;;12.71;100.00;101164.41;5088186;28;20040;-71
2024/02/25 08:57:46;;;;;;;34.85;32.38;;;;;;;12.73;100.00;101175.66;5090044;28;20048;-71
2024/02/25 09:00:14;;;;;;;35.63;33.13;;;;;;;12.79;100.00;101182.84;5087679;28;20044;-71
2024/02/25 09:02:44;;;;;;;35.85;33.28;;;;;;;12.71;100.00;101183.06;5091013;28;20054;-72
2024/02/25 09:05:11;;;;;;;36.88;34.00;;;;;;;12.75;100.00;101173.63;5089879;28;20054;-72
2024/02/25 09:07:38;;;;;;;35.50;33.00;;;;;;;12.83;100.00;101159.25;5091226;28;20408;-72
2024/02/25 09:10:06;;;;;;;35.63;33.13;;;;;;;12.84;100.00;101167.03;5088291;28;20044;-71
2024/02/25 09:12:34;;;;;;;33.83;31.55;;;;;;;12.79;100.00;101158.84;5090965;28;20109;-72
2024/02/25 09:15:02;;;;;;;31.80;29.50;;;;;;;12.92;100.00;101163.34;5084730;28;20059;-72
2024/02/25 09:17:29;;;;;;;35.33;32.72;;;;;;;12.80;100.00;101155.16;5087295;28;20161;-72
2024/02/25 09:19:56;;;;;;;37.17;34.40;;;;;;;12.79;100.00;101156.19;5090967;28;20047;-72
2024/02/25 09:22:23;;;;;;;35.35;32.85;;;;;;;12.74;100.00;101166.66;5096014;28;20056;-72
2024/02/25 09:24:50;;;;;;;37.10;34.35;;;;;;;12.80;100.00;101168.50;5088476;28;20129;-72
2024/02/25 09:27:17;;;;;;;39.50;36.38;;;;;;;12.73;100.00;101172.19;5089009;28;20105;-72
2024/02/25 09:29:44;;;;;;;33.50;30.90;;;;;;;12.70;100.00;101189.41;5082575;28;20051;-72
2024/02/25 09:32:15;;;;;;;34.97;32.47;;;;;;;12.81;100.00;101178.13;5091082;28;20217;-72
2024/02/25 09:34:45;;;;;;;35.20;32.60;;;;;;;12.85;100.00;101175.84;5089986;28;20064;-72
2024/02/25 09:37:13;;;;;;;34.75;32.25;;;;;;;12.81;100.00;101179.97;5086991;28;20721;-70
2024/02/25 09:39:41;;;;;;;35.95;33.33;;;;;;;12.80;100.00;101184.50;5108129;28;20752;-71
2024/02/25 09:42:08;;;;;;;31.67;29.48;;;;;;;12.68;100.00;101167.50;5090013;28;20048;-71
2024/02/25 09:44:36;;;;;;;27.52;25.73;;;;;;;12.68;100.00;101134.69;5090281;28;20047;-71
2024/02/25 09:47:07;;;;;;;35.50;32.65;;;;;;;12.95;100.00;101141.59;5089836;28;20083;-71
2024/02/25 09:49:36;;;;;;;40.75;37.65;;;;;;;13.05;100.00;101173.94;5090211;28;20113;-71
2024/02/25 09:52:08;;;;;;;36.70;34.08;;;;;;;12.97;100.00;101176.84;5091691;28;20059;-72
2024/02/25 09:54:36;;;;;;;27.80;26.00;;;;;;;12.76;100.00;101153.94;5090965;28;20052;-72
2024/02/25 09:57:04;;;;;;;37.45;34.75;;;;;;;13.17;100.00;101167.97;5091432;28;20054;-71
2024/02/25 09:59:31;;;;;;;39.80;37.00;;;;;;;13.20;100.00;101168.34;5096750;28;20439;-72
2024/02/25 10:01:58;;;;;;;36.60;34.00;;;;;;;13.23;100.00;101170.59;5087568;28;20500;-71
2024/02/25 10:04:26;;;;;;;32.25;30.05;;;;;;;13.25;100.00;101165.06;5090964;28;20078;-71
2024/02/25 10:06:56;;;;;;;33.63;31.13;;;;;;;13.35;100.00;101167.28;5083284;28;20071;-72
2024/02/25 10:09:30;;;;;;;35.40;32.80;;;;;;;13.39;100.00;101176.50;5087759;28;20715;-72
2024/02/25 10:11:58;;;;;;;32.55;30.15;;;;;;;13.27;100.00;101176.34;5086463;28;20054;-72
2024/02/25 10:14:25;;;;;;;27.65;25.80;;;;;;;13.22;100.00;101162.78;5092506;28;20543;-72
2024/02/25 10:17:01;;;;;;;34.92;32.42;;;;;;;13.60;100.00;101162.00;5089483;28;20109;-72
2024/02/25 10:19:28;;;;;;;40.22;37.42;;;;;;;13.77;100.00;101165.81;5085366;28;20058;-72
2024/02/25 10:22:10;;;;;;;43.22;40.17;;;;;;;14.06;100.00;101142.16;5090472;28;20044;-72
2024/02/25 10:24:39;;;;;;;34.97;32.58;;;;;;;13.98;100.00;101133.41;5087159;28;20439;-72
2024/02/25 10:27:09;;;;;;;31.17;29.17;;;;;;;13.93;100.00;101124.41;5092803;28;20048;-72
2024/02/25 10:29:51;;;;;;;40.92;38.53;;;;;;;13.88;100.00;101109.03;5086720;28;20066;-72
2024/02/25 10:32:26;;;;;;;41.05;38.55;;;;;;;14.55;100.00;101100.41;5093161;28;20062;-72
2024/02/25 10:34:54;;;;;;;44.67;41.78;;;;;;;15.96;100.00;101092.91;5091695;28;20052;-72
2024/02/25 10:37:25;;;;;;;39.40;36.67;;;;;;;15.96;100.00;101096.38;5086703;28;20067;-72
2024/02/25 10:39:53;;;;;;;37.72;35.03;;;;;;;16.53;100.00;101090.41;5089296;28;20051;-72
2024/02/25 10:42:25;;;;;;;35.92;33.20;;;;;;;17.04;100.00;101086.09;5090254;28;20134;-72
2024/02/25 10:44:54;;;;;;;34.70;32.30;;;;;;;17.47;100.00;101092.75;5095560;28;20056;-71
2024/02/25 10:47:25;;;;;;;37.30;34.90;;;;;;;17.51;100.00;101088.53;5089169;28;20431;-75
2024/02/25 10:49:52;;;;;;;38.30;35.80;;;;;;;16.65;100.00;101082.34;5104101;28;20131;-75
2024/02/25 10:52:22;;;;;;;32.33;29.92;;;;;;;16.95;100.00;101076.78;5107432;28;20073;-75
2024/02/25 10:54:50;;;;;;;45.38;42.58;;;;;;;18.07;100.00;101067.13;5088749;28;20047;-71
2024/02/25 10:57:18;;;;;;;35.58;32.97;;;;;;;18.48;100.00;101065.78;5100716;28;20051;-72
2024/02/25 10:59:47;;;;;;;34.78;32.35;;;;;;;16.66;100.00;101070.56;5084361;28;20400;-71
2024/02/25 11:02:17;;;;;;;36.22;33.92;;;;;;;15.94;100.00;101070.88;5087902;28;20048;-72
2024/02/25 11:04:45;;;;;;;43.33;40.72;;;;;;;17.48;100.00;101070.22;5084353;28;20059;-72
2024/02/25 11:07:13;;;;;;;46.15;43.35;;;;;;;17.81;100.00;101060.56;5087712;28;20056;-71
2024/02/25 11:09:42;;;;;;;47.90;45.00;;;;;;;17.86;100.00;101052.59;5089996;28;20048;-72